• Join FlightAware (Why Join?)
  • Login
  • US Flag 
03:10PM EDT


 

Airport Tracker/Info


-or-


 

Live Flight TrackerFlight Track Log ✈ N777NC ✈ 04-Jul-2013 ✈ KATL - KDAY

Flight Track Log - Related Links

Times and Time Zones

All times are in EDT time to prevent confusion due to time zone crossing. See the N777NC flight status page for this flight to view local times or setup timezone preferences in your user account.

Time Position Orientation Groundspeed Altitude Reporting Facility
EDT Latitude Longitude Course Direction KTS MPH feet Rate Location/Type
08:24AM 33.6500 -84.3833 North 167 192 2,500  Level Atlanta TRACON
08:25AM 33.6833 -84.3167 59° Northeast 258 297 3,900 1,860 Climbing Atlanta TRACON
08:26AM 33.7333 -84.2667 40° Northeast 303 349 6,100 2,400 Climbing Atlanta TRACON
08:27AM 33.8167 -84.2667 360° North 315 362 8,500 1,860 Climbing Atlanta TRACON
08:28AM 34.1160 -84.3120 North  Level FlightAware Approximate
08:29AM 34.2380 -84.3000 North  Level FlightAware Approximate
08:29AM 34.0297 -84.2944 354° North 352 405 12,300  Level Atlanta Center
08:30AM 34.1406 -84.3072 355° North 381 438 14,000 1,800 Climbing Atlanta Center
08:31AM 34.2553 -84.3103 359° North 400 460 16,000 1,980 Climbing Atlanta Center
08:32AM 34.3658 -84.3181 357° North 405 466 18,000 1,500 Climbing Atlanta Center
08:33AM 34.4806 -84.3183 360° North 405 466 19,100 1,140 Climbing Atlanta Center
08:34AM 34.5975 -84.3214 359° North 405 466 20,300 1,200 Climbing Atlanta Center
08:35AM 34.7186 -84.3244 359° North 419 482 21,600 1,200 Climbing Atlanta Center
08:36AM 34.8394 -84.3297 358° North 424 488 22,800 900 Climbing Atlanta Center
08:37AM 34.9625 -84.3378 357° North 434 499 23,500 900 Climbing Atlanta Center
08:38AM 35.0919 -84.3333 North 441 507 24,700 1,020 Climbing Atlanta Center
08:39AM 35.2214 -84.3183 North 452 520 25,600 600 Climbing Atlanta Center
08:40AM 35.3592 -84.3139 North 470 541 26,000 180 Climbing Atlanta Center
08:41AM 35.4969 -84.3067 North 487 560 26,000 300 Level Atlanta Center
08:42AM 35.6386 -84.2942 North 500 575 26,600 600 Climbing Atlanta Center
08:43AM 35.7828 -84.2922 North 505 581 27,200 780 Climbing Atlanta Center
08:45AM 36.0636 -84.2758 North 513 590 29,000 840 Climbing Indianapolis Center
08:46AM 36.2033 -84.2722 North 506 582 29,900 840 Climbing Indianapolis Center
08:47AM 36.3431 -84.2706 North 504 580 30,800 780 Climbing Indianapolis Center
08:48AM 36.4808 -84.2581 North 500 575 31,600 540 Climbing Indianapolis Center
08:49AM 36.6169 -84.2394 North 499 574 32,000 180 Climbing Indianapolis Center
08:50AM 36.7600 -84.2122 North 510 587 32,000  Level Indianapolis Center
08:52AM 36.9072 -84.2094 North 521 600 32,000  Level Indianapolis Center
08:53AM 37.0792 -84.2217 357° North 526 605 32,000  Level Indianapolis Center
08:54AM 37.2272 -84.2389 355° North 530 610 32,000  Level Indianapolis Center
08:55AM 37.3744 -84.2628 353° North 532 612 32,000  Level Indianapolis Center
08:56AM 37.5208 -84.2794 355° North 527 606 32,000  Level Indianapolis Center
08:57AM 37.6706 -84.2911 356° North 530 610 32,000  Level Indianapolis Center
08:58AM 37.8147 -84.3172 352° North 521 600 32,000 -300 Level Indianapolis Center
08:59AM 37.9603 -84.3322 355° North 525 604 31,500 -720 Descending Indianapolis Center
09:00AM 38.1106 -84.3253 North 537 618 30,600 -960 Descending Indianapolis Center
09:01AM 38.2567 -84.3114 North 527 606 29,600 -1,800 Descending Indianapolis Center
09:02AM 38.3917 -84.2983 North 488 562 27,000 -3,420 Descending Indianapolis Center
09:03AM 38.5283 -84.2944 North 490 564 22,700 -3,900 Descending Indianapolis Center
09:04AM 38.6731 -84.3356 347° North 483 556 19,100 -2,880 Descending Indianapolis Center
09:05AM 38.7875 -84.3836 342° North 427 491 16,900 -2,220 Descending Indianapolis Center
09:06AM 38.8944 -84.4061 351° North 387 445 14,600 -1,740 Descending Indianapolis Center
09:07AM 38.9867 -84.4414 343° North 347 399 13,400 -1,440 Descending Indianapolis Center
09:08AM 39.0708 -84.4828 339° North 324 373 11,700 -1,560 Descending Indianapolis Center
09:09AM 39.1592 -84.5067 348° North 321 369 10,300 -840 Descending Indianapolis Center
09:10AM 39.2467 -84.5156 356° North 321 369 10,000 -240 Descending Indianapolis Center
09:10AM 39.2931 -84.4811 30° Northeast 309 356 10,000  Level Indianapolis Center
09:11AM 39.3636 -84.4125 37° Northeast 317 365 10,000  Level Indianapolis Center
09:12AM 39.4486 -84.3275 38° Northeast 371 427 10,000  Level Indianapolis Center
09:13AM 39.5369 -84.2508 34° Northeast 390 449 10,000 -60 Level Indianapolis Center
09:14AM 39.6272 -84.1744 33° Northeast 392 451 9,900 -120 Descending Indianapolis Center
09:15AM 39.6619 -84.1439 34° Northeast 391 450 9,900  Level Indianapolis Center
09:15AM 39.7172 -84.0978 33° Northeast 360 414 9,900 -120 Level Indianapolis Center
09:16AM 39.7492 -84.0739 30° Northeast 370 426 9,800 -1,260 Descending Indianapolis Center
09:17AM 39.8194 -84.0206 30° Northeast 296 341 8,000 -2,220 Descending Indianapolis Center
09:18AM 39.8911 -83.9864 20° North 286 329 5,400 -2,460 Descending Indianapolis Center
09:19AM 39.9764 -83.9889 359° North 263 303 3,000 -1,260 Descending Indianapolis Center
09:20AM 39.9767 -84.0572 270° West 222 255 2,900 -120 Descending Indianapolis Center